sensor_id;sensor_type;location;lat;lon;timestamp;P1;durP1;ratioP1;P2;durP2;ratioP2
8704;SDS011;4389;41.932;25.904;2023-04-24T00:00:14;8.93;;;4.83;;
8704;SDS011;4389;41.932;25.904;2023-04-24T00:02:42;8.93;;;5.93;;
8704;SDS011;4389;41.932;25.904;2023-04-24T00:05:11;10.00;;;5.83;;
8704;SDS011;4389;41.932;25.904;2023-04-24T00:07:39;10.80;;;5.00;;
8704;SDS011;4389;41.932;25.904;2023-04-24T00:10:06;11.90;;;6.43;;
8704;SDS011;4389;41.932;25.904;2023-04-24T00:12:34;6.40;;;5.13;;
8704;SDS011;4389;41.932;25.904;2023-04-24T00:15:01;9.90;;;5.57;;
8704;SDS011;4389;41.932;25.904;2023-04-24T00:17:30;10.73;;;6.10;;
8704;SDS011;4389;41.932;25.904;2023-04-24T00:19:57;10.50;;;5.87;;
8704;SDS011;4389;41.932;25.904;2023-04-24T00:22:24;9.93;;;7.13;;
8704;SDS011;4389;41.932;25.904;2023-04-24T00:24:51;9.70;;;6.33;;
8704;SDS011;4389;41.932;25.904;2023-04-24T00:27:18;10.60;;;6.63;;
8704;SDS011;4389;41.932;25.904;2023-04-24T00:29:45;16.27;;;6.87;;
8704;SDS011;4389;41.932;25.904;2023-04-24T00:32:12;16.57;;;6.40;;
8704;SDS011;4389;41.932;25.904;2023-04-24T00:34:40;12.17;;;7.27;;
8704;SDS011;4389;41.932;25.904;2023-04-24T00:37:07;9.73;;;5.40;;
8704;SDS011;4389;41.932;25.904;2023-04-24T00:39:34;12.13;;;6.10;;
8704;SDS011;4389;41.932;25.904;2023-04-24T00:42:01;13.43;;;6.23;;
8704;SDS011;4389;41.932;25.904;2023-04-24T00:44:28;11.50;;;6.13;;
8704;SDS011;4389;41.932;25.904;2023-04-24T00:46:55;12.13;;;6.90;;
8704;SDS011;4389;41.932;25.904;2023-04-24T00:49:21;21.17;;;11.80;;
8704;SDS011;4389;41.932;25.904;2023-04-24T00:51:50;8.27;;;5.47;;
8704;SDS011;4389;41.932;25.904;2023-04-24T00:54:17;15.37;;;7.40;;
8704;SDS011;4389;41.932;25.904;2023-04-24T00:56:44;8.83;;;6.23;;
8704;SDS011;4389;41.932;25.904;2023-04-24T00:59:12;12.93;;;6.40;;
8704;SDS011;4389;41.932;25.904;2023-04-24T01:01:40;12.73;;;5.50;;
8704;SDS011;4389;41.932;25.904;2023-04-24T01:04:07;12.20;;;6.47;;
8704;SDS011;4389;41.932;25.904;2023-04-24T01:06:36;6.67;;;6.03;;
8704;SDS011;4389;41.932;25.904;2023-04-24T01:09:06;15.27;;;6.33;;
8704;SDS011;4389;41.932;25.904;2023-04-24T01:11:34;13.13;;;7.20;;
8704;SDS011;4389;41.932;25.904;2023-04-24T01:14:01;16.20;;;7.20;;
8704;SDS011;4389;41.932;25.904;2023-04-24T01:16:28;12.53;;;6.40;;
8704;SDS011;4389;41.932;25.904;2023-04-24T01:18:54;11.13;;;6.77;;
8704;SDS011;4389;41.932;25.904;2023-04-24T01:21:21;16.50;;;7.57;;
8704;SDS011;4389;41.932;25.904;2023-04-24T01:23:54;10.23;;;6.57;;
8704;SDS011;4389;41.932;25.904;2023-04-24T01:26:21;11.27;;;7.57;;
8704;SDS011;4389;41.932;25.904;2023-04-24T01:28:50;10.97;;;8.20;;
8704;SDS011;4389;41.932;25.904;2023-04-24T01:31:17;11.17;;;6.93;;
8704;SDS011;4389;41.932;25.904;2023-04-24T01:33:44;15.33;;;7.70;;
8704;SDS011;4389;41.932;25.904;2023-04-24T01:36:12;14.67;;;8.50;;
8704;SDS011;4389;41.932;25.904;2023-04-24T01:38:40;12.57;;;7.70;;
8704;SDS011;4389;41.932;25.904;2023-04-24T01:41:08;12.63;;;7.53;;
8704;SDS011;4389;41.932;25.904;2023-04-24T01:43:35;10.80;;;8.43;;
8704;SDS011;4389;41.932;25.904;2023-04-24T01:46:02;9.93;;;7.00;;
8704;SDS011;4389;41.932;25.904;2023-04-24T01:48:29;9.03;;;8.13;;
8704;SDS011;4389;41.932;25.904;2023-04-24T01:50:56;11.97;;;7.73;;
8704;SDS011;4389;41.932;25.904;2023-04-24T01:53:23;12.17;;;8.10;;
8704;SDS011;4389;41.932;25.904;2023-04-24T01:55:50;8.87;;;7.17;;
8704;SDS011;4389;41.932;25.904;2023-04-24T01:58:18;14.00;;;7.63;;
8704;SDS011;4389;41.932;25.904;2023-04-24T02:00:45;13.17;;;7.57;;
8704;SDS011;4389;41.932;25.904;2023-04-24T02:03:12;12.23;;;8.30;;
8704;SDS011;4389;41.932;25.904;2023-04-24T02:05:39;16.20;;;7.83;;
8704;SDS011;4389;41.932;25.904;2023-04-24T02:08:05;14.60;;;8.20;;
8704;SDS011;4389;41.932;25.904;2023-04-24T02:10:32;10.47;;;9.17;;
8704;SDS011;4389;41.932;25.904;2023-04-24T02:12:59;11.43;;;7.63;;
8704;SDS011;4389;41.932;25.904;2023-04-24T02:15:27;9.67;;;8.37;;
8704;SDS011;4389;41.932;25.904;2023-04-24T02:17:55;14.00;;;8.27;;
8704;SDS011;4389;41.932;25.904;2023-04-24T02:20:21;15.00;;;8.03;;
8704;SDS011;4389;41.932;25.904;2023-04-24T02:22:48;10.47;;;8.33;;
8704;SDS011;4389;41.932;25.904;2023-04-24T02:25:16;12.87;;;9.13;;
8704;SDS011;4389;41.932;25.904;2023-04-24T02:27:43;13.93;;;9.07;;
8704;SDS011;4389;41.932;25.904;2023-04-24T02:30:10;18.80;;;9.20;;
8704;SDS011;4389;41.932;25.904;2023-04-24T02:32:38;13.77;;;8.70;;
8704;SDS011;4389;41.932;25.904;2023-04-24T02:35:05;19.37;;;10.67;;
8704;SDS011;4389;41.932;25.904;2023-04-24T02:37:32;15.27;;;9.40;;
8704;SDS011;4389;41.932;25.904;2023-04-24T02:39:59;12.93;;;8.87;;
8704;SDS011;4389;41.932;25.904;2023-04-24T02:42:26;17.30;;;9.40;;
8704;SDS011;4389;41.932;25.904;2023-04-24T02:44:53;15.60;;;9.70;;
8704;SDS011;4389;41.932;25.904;2023-04-24T02:47:20;12.27;;;9.03;;
8704;SDS011;4389;41.932;25.904;2023-04-24T02:49:48;15.63;;;9.40;;
8704;SDS011;4389;41.932;25.904;2023-04-24T02:52:15;28.70;;;11.13;;
8704;SDS011;4389;41.932;25.904;2023-04-24T02:54:41;18.83;;;11.37;;
8704;SDS011;4389;41.932;25.904;2023-04-24T02:57:08;16.70;;;10.27;;
8704;SDS011;4389;41.932;25.904;2023-04-24T02:59:35;14.50;;;9.80;;
8704;SDS011;4389;41.932;25.904;2023-04-24T03:02:02;17.40;;;10.77;;
8704;SDS011;4389;41.932;25.904;2023-04-24T03:04:29;16.80;;;10.63;;
8704;SDS011;4389;41.932;25.904;2023-04-24T03:06:57;26.43;;;11.03;;
8704;SDS011;4389;41.932;25.904;2023-04-24T03:09:24;23.13;;;11.13;;
8704;SDS011;4389;41.932;25.904;2023-04-24T03:11:55;12.40;;;9.95;;
8704;SDS011;4389;41.932;25.904;2023-04-24T03:14:23;20.37;;;11.23;;
8704;SDS011;4389;41.932;25.904;2023-04-24T03:16:50;23.83;;;12.43;;
8704;SDS011;4389;41.932;25.904;2023-04-24T03:19:17;20.80;;;12.40;;
8704;SDS011;4389;41.932;25.904;2023-04-24T03:21:43;14.13;;;9.70;;
8704;SDS011;4389;41.932;25.904;2023-04-24T03:24:12;16.23;;;9.50;;
8704;SDS011;4389;41.932;25.904;2023-04-24T03:26:38;17.27;;;9.47;;
8704;SDS011;4389;41.932;25.904;2023-04-24T03:29:05;18.53;;;10.20;;
8704;SDS011;4389;41.932;25.904;2023-04-24T03:31:32;16.47;;;9.70;;
8704;SDS011;4389;41.932;25.904;2023-04-24T03:33:59;19.00;;;10.67;;
8704;SDS011;4389;41.932;25.904;2023-04-24T03:36:26;19.67;;;11.67;;
8704;SDS011;4389;41.932;25.904;2023-04-24T03:38:53;16.60;;;10.60;;
8704;SDS011;4389;41.932;25.904;2023-04-24T03:41:21;16.90;;;9.90;;
8704;SDS011;4389;41.932;25.904;2023-04-24T03:43:48;14.80;;;9.73;;
8704;SDS011;4389;41.932;25.904;2023-04-24T03:46:15;28.97;;;10.23;;
8704;SDS011;4389;41.932;25.904;2023-04-24T03:48:42;17.63;;;9.93;;
8704;SDS011;4389;41.932;25.904;2023-04-24T03:51:09;38.70;;;10.07;;
8704;SDS011;4389;41.932;25.904;2023-04-24T03:53:36;16.67;;;8.90;;
8704;SDS011;4389;41.932;25.904;2023-04-24T03:56:02;18.53;;;8.40;;
8704;SDS011;4389;41.932;25.904;2023-04-24T03:58:31;36.80;;;9.53;;
8704;SDS011;4389;41.932;25.904;2023-04-24T04:00:58;12.13;;;7.63;;
8704;SDS011;4389;41.932;25.904;2023-04-24T04:03:25;18.67;;;7.90;;
8704;SDS011;4389;41.932;25.904;2023-04-24T04:05:52;15.30;;;7.10;;
8704;SDS011;4389;41.932;25.904;2023-04-24T04:08:19;16.97;;;7.47;;
8704;SDS011;4389;41.932;25.904;2023-04-24T04:10:46;17.60;;;6.87;;
8704;SDS011;4389;41.932;25.904;2023-04-24T04:13:13;14.00;;;7.83;;
8704;SDS011;4389;41.932;25.904;2023-04-24T04:15:41;17.37;;;8.03;;
8704;SDS011;4389;41.932;25.904;2023-04-24T04:18:08;13.13;;;7.33;;
8704;SDS011;4389;41.932;25.904;2023-04-24T04:20:35;18.17;;;6.97;;
8704;SDS011;4389;41.932;25.904;2023-04-24T04:23:01;17.07;;;7.67;;
8704;SDS011;4389;41.932;25.904;2023-04-24T04:25:28;19.97;;;7.20;;
8704;SDS011;4389;41.932;25.904;2023-04-24T04:27:55;24.70;;;7.27;;
8704;SDS011;4389;41.932;25.904;2023-04-24T04:30:23;17.33;;;6.77;;
8704;SDS011;4389;41.932;25.904;2023-04-24T04:32:53;11.80;;;6.97;;
8704;SDS011;4389;41.932;25.904;2023-04-24T04:35:20;10.27;;;6.83;;
8704;SDS011;4389;41.932;25.904;2023-04-24T04:37:47;9.87;;;7.13;;
8704;SDS011;4389;41.932;25.904;2023-04-24T04:40:14;12.30;;;6.90;;
8704;SDS011;4389;41.932;25.904;2023-04-24T04:42:40;19.50;;;7.20;;
8704;SDS011;4389;41.932;25.904;2023-04-24T04:45:08;11.67;;;6.97;;
8704;SDS011;4389;41.932;25.904;2023-04-24T04:47:36;18.43;;;7.13;;
8704;SDS011;4389;41.932;25.904;2023-04-24T04:50:06;14.93;;;6.83;;
8704;SDS011;4389;41.932;25.904;2023-04-24T04:52:33;16.43;;;7.30;;
8704;SDS011;4389;41.932;25.904;2023-04-24T04:55:00;14.90;;;7.47;;
8704;SDS011;4389;41.932;25.904;2023-04-24T04:57:27;16.87;;;7.17;;
8704;SDS011;4389;41.932;25.904;2023-04-24T04:59:54;15.73;;;7.30;;
8704;SDS011;4389;41.932;25.904;2023-04-24T05:02:21;13.20;;;7.37;;
8704;SDS011;4389;41.932;25.904;2023-04-24T05:04:48;22.00;;;7.57;;
8704;SDS011;4389;41.932;25.904;2023-04-24T05:07:16;16.63;;;7.80;;
8704;SDS011;4389;41.932;25.904;2023-04-24T05:09:43;10.90;;;7.20;;
8704;SDS011;4389;41.932;25.904;2023-04-24T05:12:10;15.63;;;7.43;;
8704;SDS011;4389;41.932;25.904;2023-04-24T05:14:37;20.23;;;7.33;;
8704;SDS011;4389;41.932;25.904;2023-04-24T05:17:04;18.50;;;8.00;;
8704;SDS011;4389;41.932;25.904;2023-04-24T05:19:31;11.87;;;6.90;;
8704;SDS011;4389;41.932;25.904;2023-04-24T05:22:01;12.70;;;7.20;;
8704;SDS011;4389;41.932;25.904;2023-04-24T05:24:30;9.97;;;7.47;;
8704;SDS011;4389;41.932;25.904;2023-04-24T05:26:57;13.70;;;7.07;;
8704;SDS011;4389;41.932;25.904;2023-04-24T05:29:24;19.13;;;7.43;;
8704;SDS011;4389;41.932;25.904;2023-04-24T05:31:52;13.73;;;7.37;;
8704;SDS011;4389;41.932;25.904;2023-04-24T05:34:19;11.23;;;7.60;;
8704;SDS011;4389;41.932;25.904;2023-04-24T05:36:45;20.67;;;8.87;;
8704;SDS011;4389;41.932;25.904;2023-04-24T05:39:12;18.30;;;7.60;;
8704;SDS011;4389;41.932;25.904;2023-04-24T05:41:41;20.20;;;8.53;;
8704;SDS011;4389;41.932;25.904;2023-04-24T05:44:08;14.70;;;7.60;;
8704;SDS011;4389;41.932;25.904;2023-04-24T05:46:35;17.10;;;7.63;;
8704;SDS011;4389;41.932;25.904;2023-04-24T05:49:02;15.73;;;7.60;;
8704;SDS011;4389;41.932;25.904;2023-04-24T05:51:29;11.67;;;7.63;;
8704;SDS011;4389;41.932;25.904;2023-04-24T05:53:56;19.43;;;9.37;;
8704;SDS011;4389;41.932;25.904;2023-04-24T05:56:23;13.90;;;7.37;;
8704;SDS011;4389;41.932;25.904;2023-04-24T05:58:52;16.43;;;7.57;;
8704;SDS011;4389;41.932;25.904;2023-04-24T06:01:18;14.47;;;8.57;;
8704;SDS011;4389;41.932;25.904;2023-04-24T06:03:45;11.90;;;7.30;;
8704;SDS011;4389;41.932;25.904;2023-04-24T06:06:12;12.13;;;7.60;;
8704;SDS011;4389;41.932;25.904;2023-04-24T06:08:40;22.23;;;10.40;;
8704;SDS011;4389;41.932;25.904;2023-04-24T06:11:09;10.30;;;7.73;;
8704;SDS011;4389;41.932;25.904;2023-04-24T06:13:36;16.53;;;8.17;;
8704;SDS011;4389;41.932;25.904;2023-04-24T06:16:04;17.80;;;8.13;;
8704;SDS011;4389;41.932;25.904;2023-04-24T06:18:31;12.83;;;7.53;;
8704;SDS011;4389;41.932;25.904;2023-04-24T06:20:58;18.50;;;8.03;;
8704;SDS011;4389;41.932;25.904;2023-04-24T06:23:25;15.00;;;7.60;;
8704;SDS011;4389;41.932;25.904;2023-04-24T06:25:52;19.63;;;8.07;;
8704;SDS011;4389;41.932;25.904;2023-04-24T06:28:19;20.50;;;8.23;;
8704;SDS011;4389;41.932;25.904;2023-04-24T06:30:46;20.80;;;9.90;;
8704;SDS011;4389;41.932;25.904;2023-04-24T06:33:14;14.03;;;8.90;;
8704;SDS011;4389;41.932;25.904;2023-04-24T06:35:42;15.27;;;7.80;;
8704;SDS011;4389;41.932;25.904;2023-04-24T06:38:09;28.37;;;8.80;;
8704;SDS011;4389;41.932;25.904;2023-04-24T06:40:36;13.90;;;7.80;;
8704;SDS011;4389;41.932;25.904;2023-04-24T06:43:03;19.07;;;10.40;;
8704;SDS011;4389;41.932;25.904;2023-04-24T06:45:31;10.50;;;8.20;;
8704;SDS011;4389;41.932;25.904;2023-04-24T06:47:58;24.37;;;9.40;;
8704;SDS011;4389;41.932;25.904;2023-04-24T06:50:26;11.80;;;8.13;;
8704;SDS011;4389;41.932;25.904;2023-04-24T06:52:53;12.63;;;8.20;;
8704;SDS011;4389;41.932;25.904;2023-04-24T06:55:20;13.17;;;6.93;;
8704;SDS011;4389;41.932;25.904;2023-04-24T06:57:47;12.97;;;7.80;;
8704;SDS011;4389;41.932;25.904;2023-04-24T07:00:14;25.30;;;10.53;;
8704;SDS011;4389;41.932;25.904;2023-04-24T07:02:47;17.54;;;8.86;;
8704;SDS011;4389;41.932;25.904;2023-04-24T07:05:14;28.03;;;12.83;;
8704;SDS011;4389;41.932;25.904;2023-04-24T07:07:47;15.77;;;7.70;;
8704;SDS011;4389;41.932;25.904;2023-04-24T07:10:15;10.90;;;7.80;;
8704;SDS011;4389;41.932;25.904;2023-04-24T07:12:41;10.23;;;7.23;;
8704;SDS011;4389;41.932;25.904;2023-04-24T07:15:09;11.30;;;7.63;;
8704;SDS011;4389;41.932;25.904;2023-04-24T07:17:36;10.57;;;7.27;;
8704;SDS011;4389;41.932;25.904;2023-04-24T07:20:08;13.17;;;8.03;;
8704;SDS011;4389;41.932;25.904;2023-04-24T07:22:36;16.63;;;7.37;;
8704;SDS011;4389;41.932;25.904;2023-04-24T07:25:05;10.73;;;7.47;;
8704;SDS011;4389;41.932;25.904;2023-04-24T07:27:32;10.70;;;7.07;;
8704;SDS011;4389;41.932;25.904;2023-04-24T07:29:59;16.20;;;7.27;;
8704;SDS011;4389;41.932;25.904;2023-04-24T07:32:27;16.00;;;9.00;;
8704;SDS011;4389;41.932;25.904;2023-04-24T07:34:53;20.10;;;11.67;;
8704;SDS011;4389;41.932;25.904;2023-04-24T07:37:20;9.50;;;7.17;;
8704;SDS011;4389;41.932;25.904;2023-04-24T07:39:47;12.77;;;8.43;;
8704;SDS011;4389;41.932;25.904;2023-04-24T07:42:16;16.80;;;7.27;;
8704;SDS011;4389;41.932;25.904;2023-04-24T07:44:42;17.97;;;7.80;;
8704;SDS011;4389;41.932;25.904;2023-04-24T07:47:10;17.50;;;8.23;;
8704;SDS011;4389;41.932;25.904;2023-04-24T07:49:37;10.33;;;6.30;;
8704;SDS011;4389;41.932;25.904;2023-04-24T07:52:04;11.67;;;7.23;;
8704;SDS011;4389;41.932;25.904;2023-04-24T07:54:31;14.53;;;7.27;;
8704;SDS011;4389;41.932;25.904;2023-04-24T07:56:58;15.67;;;7.83;;
8704;SDS011;4389;41.932;25.904;2023-04-24T07:59:26;10.73;;;6.70;;
8704;SDS011;4389;41.932;25.904;2023-04-24T08:01:53;14.10;;;7.70;;
8704;SDS011;4389;41.932;25.904;2023-04-24T08:04:21;10.87;;;7.47;;
8704;SDS011;4389;41.932;25.904;2023-04-24T08:06:47;10.97;;;6.30;;
8704;SDS011;4389;41.932;25.904;2023-04-24T08:09:14;11.73;;;6.23;;
8704;SDS011;4389;41.932;25.904;2023-04-24T08:11:41;10.87;;;6.77;;
8704;SDS011;4389;41.932;25.904;2023-04-24T08:14:08;11.90;;;6.23;;
8704;SDS011;4389;41.932;25.904;2023-04-24T08:16:36;8.80;;;5.40;;
8704;SDS011;4389;41.932;25.904;2023-04-24T08:19:03;10.40;;;5.47;;
8704;SDS011;4389;41.932;25.904;2023-04-24T08:21:30;15.77;;;6.67;;
8704;SDS011;4389;41.932;25.904;2023-04-24T08:23:58;16.47;;;5.63;;
8704;SDS011;4389;41.932;25.904;2023-04-24T08:26:24;9.23;;;5.73;;
8704;SDS011;4389;41.932;25.904;2023-04-24T08:28:51;14.07;;;6.73;;
8704;SDS011;4389;41.932;25.904;2023-04-24T08:31:18;7.03;;;5.23;;
8704;SDS011;4389;41.932;25.904;2023-04-24T08:33:46;14.23;;;5.33;;
8704;SDS011;4389;41.932;25.904;2023-04-24T08:36:13;6.87;;;5.17;;
8704;SDS011;4389;41.932;25.904;2023-04-24T08:38:40;10.90;;;5.00;;
8704;SDS011;4389;41.932;25.904;2023-04-24T08:41:08;14.13;;;7.23;;
8704;SDS011;4389;41.932;25.904;2023-04-24T08:43:35;11.07;;;4.80;;
8704;SDS011;4389;41.932;25.904;2023-04-24T08:46:04;11.00;;;4.93;;
8704;SDS011;4389;41.932;25.904;2023-04-24T08:48:31;6.90;;;4.63;;
8704;SDS011;4389;41.932;25.904;2023-04-24T08:51:00;9.83;;;5.40;;
8704;SDS011;4389;41.932;25.904;2023-04-24T08:53:28;12.23;;;7.03;;
8704;SDS011;4389;41.932;25.904;2023-04-24T08:55:55;14.23;;;6.60;;
8704;SDS011;4389;41.932;25.904;2023-04-24T08:58:22;10.83;;;5.97;;
8704;SDS011;4389;41.932;25.904;2023-04-24T09:00:52;11.43;;;6.20;;
8704;SDS011;4389;41.932;25.904;2023-04-24T09:03:21;13.30;;;6.20;;
8704;SDS011;4389;41.932;25.904;2023-04-24T09:05:48;19.90;;;5.60;;
8704;SDS011;4389;41.932;25.904;2023-04-24T09:08:18;11.30;;;5.37;;
8704;SDS011;4389;41.932;25.904;2023-04-24T09:10:45;10.33;;;5.77;;
8704;SDS011;4389;41.932;25.904;2023-04-24T09:13:12;9.27;;;5.20;;
8704;SDS011;4389;41.932;25.904;2023-04-24T09:15:40;9.53;;;7.07;;
8704;SDS011;4389;41.932;25.904;2023-04-24T09:18:07;10.13;;;5.73;;
8704;SDS011;4389;41.932;25.904;2023-04-24T09:20:34;7.83;;;5.63;;
8704;SDS011;4389;41.932;25.904;2023-04-24T09:23:01;11.47;;;5.20;;
8704;SDS011;4389;41.932;25.904;2023-04-24T09:25:32;8.10;;;5.30;;
8704;SDS011;4389;41.932;25.904;2023-04-24T09:28:01;8.67;;;5.60;;
8704;SDS011;4389;41.932;25.904;2023-04-24T09:30:28;13.07;;;6.00;;
8704;SDS011;4389;41.932;25.904;2023-04-24T09:33:09;10.83;;;6.07;;
8704;SDS011;4389;41.932;25.904;2023-04-24T09:35:37;12.70;;;6.00;;
8704;SDS011;4389;41.932;25.904;2023-04-24T09:38:07;19.33;;;5.83;;
8704;SDS011;4389;41.932;25.904;2023-04-24T09:40:36;10.80;;;6.40;;
8704;SDS011;4389;41.932;25.904;2023-04-24T09:43:03;8.40;;;5.37;;
8704;SDS011;4389;41.932;25.904;2023-04-24T09:45:34;11.50;;;5.77;;
8704;SDS011;4389;41.932;25.904;2023-04-24T09:48:02;12.60;;;5.33;;
8704;SDS011;4389;41.932;25.904;2023-04-24T09:50:30;8.33;;;4.97;;
8704;SDS011;4389;41.932;25.904;2023-04-24T09:53:01;5.67;;;4.77;;
8704;SDS011;4389;41.932;25.904;2023-04-24T09:55:30;10.67;;;5.07;;
8704;SDS011;4389;41.932;25.904;2023-04-24T09:57:59;10.53;;;5.80;;
8704;SDS011;4389;41.932;25.904;2023-04-24T10:00:30;10.53;;;4.97;;
8704;SDS011;4389;41.932;25.904;2023-04-24T10:02:58;13.37;;;5.80;;
8704;SDS011;4389;41.932;25.904;2023-04-24T10:05:27;8.23;;;5.33;;
8704;SDS011;4389;41.932;25.904;2023-04-24T10:08:00;9.97;;;5.23;;
8704;SDS011;4389;41.932;25.904;2023-04-24T10:10:28;8.37;;;4.47;;
8704;SDS011;4389;41.932;25.904;2023-04-24T10:12:55;9.50;;;5.13;;
8704;SDS011;4389;41.932;25.904;2023-04-24T10:15:23;12.00;;;4.90;;
8704;SDS011;4389;41.932;25.904;2023-04-24T10:17:52;10.03;;;5.40;;
8704;SDS011;4389;41.932;25.904;2023-04-24T10:20:19;8.07;;;4.93;;
8704;SDS011;4389;41.932;25.904;2023-04-24T10:22:48;9.57;;;5.10;;
8704;SDS011;4389;41.932;25.904;2023-04-24T10:25:17;16.73;;;4.93;;
8704;SDS011;4389;41.932;25.904;2023-04-24T10:27:46;9.70;;;5.00;;
8704;SDS011;4389;41.932;25.904;2023-04-24T10:30:14;14.27;;;5.50;;
8704;SDS011;4389;41.932;25.904;2023-04-24T10:32:43;8.77;;;5.13;;
8704;SDS011;4389;41.932;25.904;2023-04-24T10:35:11;12.03;;;5.77;;
8704;SDS011;4389;41.932;25.904;2023-04-24T10:37:41;13.73;;;5.27;;
8704;SDS011;4389;41.932;25.904;2023-04-24T10:40:11;17.83;;;5.27;;
8704;SDS011;4389;41.932;25.904;2023-04-24T10:42:42;10.30;;;5.10;;
8704;SDS011;4389;41.932;25.904;2023-04-24T10:45:16;7.37;;;5.43;;
8704;SDS011;4389;41.932;25.904;2023-04-24T10:47:54;8.97;;;4.50;;
8704;SDS011;4389;41.932;25.904;2023-04-24T10:50:26;9.97;;;4.87;;
8704;SDS011;4389;41.932;25.904;2023-04-24T10:52:55;14.33;;;5.63;;
8704;SDS011;4389;41.932;25.904;2023-04-24T10:55:42;6.80;;;5.20;;
8704;SDS011;4389;41.932;25.904;2023-04-24T10:58:11;12.70;;;5.47;;
8704;SDS011;4389;41.932;25.904;2023-04-24T11:00:38;8.43;;;5.43;;
8704;SDS011;4389;41.932;25.904;2023-04-24T11:03:12;8.87;;;5.43;;
8704;SDS011;4389;41.932;25.904;2023-04-24T11:05:50;7.50;;;5.20;;
8704;SDS011;4389;41.932;25.904;2023-04-24T11:08:23;14.93;;;5.07;;
8704;SDS011;4389;41.932;25.904;2023-04-24T11:10:56;11.67;;;5.30;;
8704;SDS011;4389;41.932;25.904;2023-04-24T11:13:25;7.60;;;5.10;;
8704;SDS011;4389;41.932;25.904;2023-04-24T11:16:12;7.67;;;4.97;;
8704;SDS011;4389;41.932;25.904;2023-04-24T11:18:41;7.30;;;4.77;;
8704;SDS011;4389;41.932;25.904;2023-04-24T11:21:11;12.67;;;5.33;;
8704;SDS011;4389;41.932;25.904;2023-04-24T11:23:39;8.93;;;5.10;;
8704;SDS011;4389;41.932;25.904;2023-04-24T11:26:12;8.93;;;4.13;;
8704;SDS011;4389;41.932;25.904;2023-04-24T11:28:46;8.97;;;4.80;;
8704;SDS011;4389;41.932;25.904;2023-04-24T11:34:10;11.37;;;5.90;;
8704;SDS011;4389;41.932;25.904;2023-04-24T11:36:39;10.53;;;4.97;;
8704;SDS011;4389;41.932;25.904;2023-04-24T11:39:06;7.03;;;5.13;;
8704;SDS011;4389;41.932;25.904;2023-04-24T11:41:33;8.50;;;4.93;;
8704;SDS011;4389;41.932;25.904;2023-04-24T11:44:01;12.20;;;7.07;;
8704;SDS011;4389;41.932;25.904;2023-04-24T11:46:29;19.00;;;8.00;;
8704;SDS011;4389;41.932;25.904;2023-04-24T11:48:57;12.83;;;6.30;;
8704;SDS011;4389;41.932;25.904;2023-04-24T11:51:26;13.07;;;4.97;;
8704;SDS011;4389;41.932;25.904;2023-04-24T11:53:54;10.50;;;4.40;;
8704;SDS011;4389;41.932;25.904;2023-04-24T11:56:21;8.00;;;4.43;;
8704;SDS011;4389;41.932;25.904;2023-04-24T11:58:48;7.93;;;4.20;;
8704;SDS011;4389;41.932;25.904;2023-04-24T12:01:19;8.27;;;4.77;;
8704;SDS011;4389;41.932;25.904;2023-04-24T12:03:47;9.97;;;4.10;;
8704;SDS011;4389;41.932;25.904;2023-04-24T12:06:16;6.33;;;4.00;;
8704;SDS011;4389;41.932;25.904;2023-04-24T12:08:46;5.73;;;3.90;;
8704;SDS011;4389;41.932;25.904;2023-04-24T12:11:15;15.30;;;5.33;;
8704;SDS011;4389;41.932;25.904;2023-04-24T12:13:44;11.90;;;5.07;;
8704;SDS011;4389;41.932;25.904;2023-04-24T12:16:11;6.63;;;4.57;;
8704;SDS011;4389;41.932;25.904;2023-04-24T12:18:42;5.73;;;4.07;;
8704;SDS011;4389;41.932;25.904;2023-04-24T12:21:17;9.07;;;4.17;;
8704;SDS011;4389;41.932;25.904;2023-04-24T12:23:46;8.60;;;4.43;;
8704;SDS011;4389;41.932;25.904;2023-04-24T12:26:16;7.40;;;4.07;;
8704;SDS011;4389;41.932;25.904;2023-04-24T12:28:46;10.33;;;3.93;;
8704;SDS011;4389;41.932;25.904;2023-04-24T12:31:14;6.83;;;3.70;;
8704;SDS011;4389;41.932;25.904;2023-04-24T12:33:41;8.53;;;3.97;;
8704;SDS011;4389;41.932;25.904;2023-04-24T12:36:09;8.27;;;3.83;;
8704;SDS011;4389;41.932;25.904;2023-04-24T12:38:37;10.50;;;4.90;;
8704;SDS011;4389;41.932;25.904;2023-04-24T12:41:08;8.63;;;3.67;;
8704;SDS011;4389;41.932;25.904;2023-04-24T12:43:36;5.10;;;3.63;;
8704;SDS011;4389;41.932;25.904;2023-04-24T12:46:03;6.30;;;3.90;;
8704;SDS011;4389;41.932;25.904;2023-04-24T12:48:31;5.40;;;3.47;;
8704;SDS011;4389;41.932;25.904;2023-04-24T12:50:58;6.47;;;3.77;;
8704;SDS011;4389;41.932;25.904;2023-04-24T12:53:27;7.43;;;3.57;;
8704;SDS011;4389;41.932;25.904;2023-04-24T12:55:56;9.73;;;4.60;;
8704;SDS011;4389;41.932;25.904;2023-04-24T12:58:25;7.07;;;3.47;;
8704;SDS011;4389;41.932;25.904;2023-04-24T13:00:51;7.37;;;3.43;;
8704;SDS011;4389;41.932;25.904;2023-04-24T13:03:18;5.20;;;3.50;;
8704;SDS011;4389;41.932;25.904;2023-04-24T13:05:47;9.13;;;4.40;;
8704;SDS011;4389;41.932;25.904;2023-04-24T13:08:14;7.20;;;3.60;;
8704;SDS011;4389;41.932;25.904;2023-04-24T13:10:41;6.40;;;3.87;;
8704;SDS011;4389;41.932;25.904;2023-04-24T13:13:08;13.93;;;4.73;;
8704;SDS011;4389;41.932;25.904;2023-04-24T13:15:36;10.23;;;4.13;;
8704;SDS011;4389;41.932;25.904;2023-04-24T13:18:03;4.90;;;3.10;;
8704;SDS011;4389;41.932;25.904;2023-04-24T13:20:30;5.00;;;3.60;;
8704;SDS011;4389;41.932;25.904;2023-04-24T13:22:57;9.20;;;6.27;;
8704;SDS011;4389;41.932;25.904;2023-04-24T13:25:24;7.77;;;3.47;;
8704;SDS011;4389;41.932;25.904;2023-04-24T13:27:51;5.60;;;3.50;;
8704;SDS011;4389;41.932;25.904;2023-04-24T13:30:18;6.57;;;3.73;;
8704;SDS011;4389;41.932;25.904;2023-04-24T13:32:47;4.63;;;3.20;;
8704;SDS011;4389;41.932;25.904;2023-04-24T13:35:14;17.30;;;3.37;;
8704;SDS011;4389;41.932;25.904;2023-04-24T13:37:40;10.67;;;3.57;;
8704;SDS011;4389;41.932;25.904;2023-04-24T13:40:08;8.27;;;3.73;;
8704;SDS011;4389;41.932;25.904;2023-04-24T13:42:35;14.57;;;4.03;;
8704;SDS011;4389;41.932;25.904;2023-04-24T13:45:02;5.93;;;4.20;;
8704;SDS011;4389;41.932;25.904;2023-04-24T13:47:30;10.93;;;4.40;;
8704;SDS011;4389;41.932;25.904;2023-04-24T13:49:58;7.10;;;3.77;;
8704;SDS011;4389;41.932;25.904;2023-04-24T13:52:25;6.53;;;3.80;;
8704;SDS011;4389;41.932;25.904;2023-04-24T13:54:52;12.37;;;4.20;;
8704;SDS011;4389;41.932;25.904;2023-04-24T13:57:19;14.07;;;4.57;;
8704;SDS011;4389;41.932;25.904;2023-04-24T13:59:46;10.20;;;3.73;;
8704;SDS011;4389;41.932;25.904;2023-04-24T14:02:13;11.43;;;4.97;;
8704;SDS011;4389;41.932;25.904;2023-04-24T14:04:40;5.90;;;4.10;;
8704;SDS011;4389;41.932;25.904;2023-04-24T14:07:08;8.03;;;4.87;;
8704;SDS011;4389;41.932;25.904;2023-04-24T14:09:35;7.43;;;4.13;;
8704;SDS011;4389;41.932;25.904;2023-04-24T14:12:02;8.70;;;4.33;;
8704;SDS011;4389;41.932;25.904;2023-04-24T14:14:29;6.33;;;4.33;;
8704;SDS011;4389;41.932;25.904;2023-04-24T14:16:56;6.57;;;4.07;;
8704;SDS011;4389;41.932;25.904;2023-04-24T14:19:23;6.67;;;4.00;;
8704;SDS011;4389;41.932;25.904;2023-04-24T14:21:50;8.87;;;3.80;;
8704;SDS011;4389;41.932;25.904;2023-04-24T14:24:18;5.03;;;3.70;;
8704;SDS011;4389;41.932;25.904;2023-04-24T14:26:45;7.20;;;4.20;;
8704;SDS011;4389;41.932;25.904;2023-04-24T14:29:12;9.20;;;4.27;;
8704;SDS011;4389;41.932;25.904;2023-04-24T14:31:39;5.53;;;4.00;;
8704;SDS011;4389;41.932;25.904;2023-04-24T14:34:05;5.03;;;3.70;;
8704;SDS011;4389;41.932;25.904;2023-04-24T14:36:32;12.27;;;3.83;;
8704;SDS011;4389;41.932;25.904;2023-04-24T14:38:59;5.10;;;3.57;;
8704;SDS011;4389;41.932;25.904;2023-04-24T14:41:29;4.60;;;3.43;;
8704;SDS011;4389;41.932;25.904;2023-04-24T14:43:56;3.33;;;3.03;;
8704;SDS011;4389;41.932;25.904;2023-04-24T14:46:23;5.83;;;3.37;;
8704;SDS011;4389;41.932;25.904;2023-04-24T14:48:50;6.50;;;3.47;;
8704;SDS011;4389;41.932;25.904;2023-04-24T14:51:17;6.10;;;3.53;;
8704;SDS011;4389;41.932;25.904;2023-04-24T14:53:44;7.03;;;4.30;;
8704;SDS011;4389;41.932;25.904;2023-04-24T14:56:11;8.40;;;4.80;;